sensor_id;sensor_type;location;lat;lon;timestamp;P1;durP1;ratioP1;P2;durP2;ratioP2
22780;SDS011;11557;50.884;4.322;2023-10-08T00:02:03;5.63;;;2.33;;
22780;SDS011;11557;50.884;4.322;2023-10-08T00:04:31;5.97;;;2.03;;
22780;SDS011;11557;50.884;4.322;2023-10-08T00:07:03;6.85;;;2.40;;
22780;SDS011;11557;50.884;4.322;2023-10-08T00:09:33;5.20;;;2.13;;
22780;SDS011;11557;50.884;4.322;2023-10-08T00:12:00;4.32;;;1.92;;
22780;SDS011;11557;50.884;4.322;2023-10-08T00:14:27;4.78;;;2.13;;
22780;SDS011;11557;50.884;4.322;2023-10-08T00:16:53;8.88;;;2.33;;
22780;SDS011;11557;50.884;4.322;2023-10-08T00:19:19;6.80;;;2.72;;
22780;SDS011;11557;50.884;4.322;2023-10-08T00:21:46;6.55;;;2.50;;
22780;SDS011;11557;50.884;4.322;2023-10-08T00:24:13;4.97;;;2.65;;
22780;SDS011;11557;50.884;4.322;2023-10-08T00:26:40;8.15;;;1.98;;
22780;SDS011;11557;50.884;4.322;2023-10-08T00:29:06;7.15;;;2.13;;
22780;SDS011;11557;50.884;4.322;2023-10-08T00:31:43;5.32;;;2.00;;
22780;SDS011;11557;50.884;4.322;2023-10-08T00:34:10;2.97;;;1.77;;
22780;SDS011;11557;50.884;4.322;2023-10-08T00:36:38;6.38;;;2.13;;
22780;SDS011;11557;50.884;4.322;2023-10-08T00:39:08;6.53;;;2.30;;
22780;SDS011;11557;50.884;4.322;2023-10-08T00:41:52;4.30;;;2.30;;
22780;SDS011;11557;50.884;4.322;2023-10-08T00:44:23;9.70;;;2.10;;
22780;SDS011;11557;50.884;4.322;2023-10-08T00:46:56;5.15;;;2.35;;
22780;SDS011;11557;50.884;4.322;2023-10-08T00:49:25;6.45;;;2.60;;
22780;SDS011;11557;50.884;4.322;2023-10-08T00:52:13;7.13;;;2.47;;
22780;SDS011;11557;50.884;4.322;2023-10-08T00:54:40;6.32;;;2.40;;
22780;SDS011;11557;50.884;4.322;2023-10-08T00:57:31;4.57;;;2.13;;
22780;SDS011;11557;50.884;4.322;2023-10-08T01:00:05;8.13;;;2.53;;
22780;SDS011;11557;50.884;4.322;2023-10-08T01:02:37;7.28;;;2.40;;
22780;SDS011;11557;50.884;4.322;2023-10-08T01:05:15;4.95;;;2.13;;
22780;SDS011;11557;50.884;4.322;2023-10-08T01:07:50;6.40;;;2.38;;
22780;SDS011;11557;50.884;4.322;2023-10-08T01:10:16;4.68;;;2.72;;
22780;SDS011;11557;50.884;4.322;2023-10-08T01:12:46;9.60;;;2.35;;
22780;SDS011;11557;50.884;4.322;2023-10-08T01:15:35;6.15;;;2.50;;
22780;SDS011;11557;50.884;4.322;2023-10-08T01:18:03;8.38;;;2.47;;
22780;SDS011;11557;50.884;4.322;2023-10-08T01:20:42;4.10;;;2.22;;
22780;SDS011;11557;50.884;4.322;2023-10-08T01:23:13;5.53;;;2.40;;
22780;SDS011;11557;50.884;4.322;2023-10-08T01:25:43;11.57;;;3.92;;
22780;SDS011;11557;50.884;4.322;2023-10-08T01:28:23;6.47;;;2.67;;
22780;SDS011;11557;50.884;4.322;2023-10-08T01:30:59;9.05;;;2.42;;
22780;SDS011;11557;50.884;4.322;2023-10-08T01:33:29;6.03;;;2.63;;
22780;SDS011;11557;50.884;4.322;2023-10-08T01:35:56;5.70;;;2.60;;
22780;SDS011;11557;50.884;4.322;2023-10-08T01:38:29;8.75;;;2.58;;
22780;SDS011;11557;50.884;4.322;2023-10-08T01:40:58;5.82;;;2.55;;
22780;SDS011;11557;50.884;4.322;2023-10-08T01:46:22;8.25;;;2.38;;
22780;SDS011;11557;50.884;4.322;2023-10-08T01:48:50;7.28;;;2.20;;
22780;SDS011;11557;50.884;4.322;2023-10-08T01:51:19;6.57;;;2.95;;
22780;SDS011;11557;50.884;4.322;2023-10-08T01:53:53;6.40;;;2.80;;
22780;SDS011;11557;50.884;4.322;2023-10-08T01:56:20;9.75;;;2.90;;
22780;SDS011;11557;50.884;4.322;2023-10-08T01:58:46;5.05;;;2.60;;
22780;SDS011;11557;50.884;4.322;2023-10-08T02:01:12;4.35;;;2.25;;
22780;SDS011;11557;50.884;4.322;2023-10-08T02:03:38;4.85;;;2.63;;
22780;SDS011;11557;50.884;4.322;2023-10-08T02:06:06;6.57;;;2.78;;
22780;SDS011;11557;50.884;4.322;2023-10-08T02:08:34;6.30;;;2.92;;
22780;SDS011;11557;50.884;4.322;2023-10-08T02:11:01;11.18;;;2.63;;
22780;SDS011;11557;50.884;4.322;2023-10-08T02:13:27;5.82;;;2.10;;
22780;SDS011;11557;50.884;4.322;2023-10-08T02:15:53;7.05;;;2.50;;
22780;SDS011;11557;50.884;4.322;2023-10-08T02:18:19;10.60;;;2.80;;
22780;SDS011;11557;50.884;4.322;2023-10-08T02:20:45;5.32;;;2.80;;
22780;SDS011;11557;50.884;4.322;2023-10-08T02:23:11;6.75;;;2.60;;
22780;SDS011;11557;50.884;4.322;2023-10-08T02:25:39;6.50;;;2.70;;
22780;SDS011;11557;50.884;4.322;2023-10-08T02:28:06;5.38;;;2.40;;
22780;SDS011;11557;50.884;4.322;2023-10-08T02:30:41;8.60;;;2.53;;
22780;SDS011;11557;50.884;4.322;2023-10-08T02:33:07;7.70;;;2.60;;
22780;SDS011;11557;50.884;4.322;2023-10-08T02:35:39;7.63;;;2.92;;
22780;SDS011;11557;50.884;4.322;2023-10-08T02:38:10;7.97;;;3.03;;
22780;SDS011;11557;50.884;4.322;2023-10-08T02:40:49;9.80;;;3.00;;
22780;SDS011;11557;50.884;4.322;2023-10-08T02:43:16;5.72;;;2.63;;
22780;SDS011;11557;50.884;4.322;2023-10-08T02:45:44;5.82;;;3.20;;
22780;SDS011;11557;50.884;4.322;2023-10-08T02:48:14;6.82;;;3.20;;
22780;SDS011;11557;50.884;4.322;2023-10-08T02:50:42;6.63;;;2.95;;
22780;SDS011;11557;50.884;4.322;2023-10-08T02:53:11;6.82;;;3.08;;
22780;SDS011;11557;50.884;4.322;2023-10-08T02:55:44;5.80;;;2.70;;
22780;SDS011;11557;50.884;4.322;2023-10-08T02:58:12;5.13;;;2.42;;
22780;SDS011;11557;50.884;4.322;2023-10-08T03:00:46;6.22;;;2.53;;
22780;SDS011;11557;50.884;4.322;2023-10-08T03:03:14;5.15;;;2.40;;
22780;SDS011;11557;50.884;4.322;2023-10-08T03:05:41;6.05;;;2.38;;
22780;SDS011;11557;50.884;4.322;2023-10-08T03:08:09;4.55;;;2.78;;
22780;SDS011;11557;50.884;4.322;2023-10-08T03:10:37;9.00;;;2.80;;
22780;SDS011;11557;50.884;4.322;2023-10-08T03:13:03;7.25;;;2.60;;
22780;SDS011;11557;50.884;4.322;2023-10-08T03:15:31;3.60;;;2.13;;
22780;SDS011;11557;50.884;4.322;2023-10-08T03:18:12;8.65;;;3.35;;
22780;SDS011;11557;50.884;4.322;2023-10-08T03:20:41;6.32;;;2.92;;
22780;SDS011;11557;50.884;4.322;2023-10-08T03:23:11;4.75;;;2.22;;
22780;SDS011;11557;50.884;4.322;2023-10-08T03:25:57;4.85;;;2.50;;
22780;SDS011;11557;50.884;4.322;2023-10-08T03:28:27;7.10;;;2.78;;
22780;SDS011;11557;50.884;4.322;2023-10-08T03:30:59;5.20;;;2.75;;
22780;SDS011;11557;50.884;4.322;2023-10-08T03:33:38;5.20;;;2.78;;
22780;SDS011;11557;50.884;4.322;2023-10-08T03:36:07;6.88;;;3.50;;
22780;SDS011;11557;50.884;4.322;2023-10-08T03:38:45;6.32;;;2.95;;
22780;SDS011;11557;50.884;4.322;2023-10-08T03:41:24;9.73;;;3.40;;
22780;SDS011;11557;50.884;4.322;2023-10-08T03:43:53;5.40;;;2.72;;
22780;SDS011;11557;50.884;4.322;2023-10-08T03:46:30;9.27;;;3.08;;
22780;SDS011;11557;50.884;4.322;2023-10-08T03:49:04;6.47;;;2.90;;
22780;SDS011;11557;50.884;4.322;2023-10-08T03:51:36;6.57;;;3.05;;
22780;SDS011;11557;50.884;4.322;2023-10-08T03:56:35;8.27;;;2.95;;
22780;SDS011;11557;50.884;4.322;2023-10-08T03:59:05;7.38;;;2.67;;
22780;SDS011;11557;50.884;4.322;2023-10-08T04:02:06;5.60;;;2.63;;
22780;SDS011;11557;50.884;4.322;2023-10-08T04:04:37;5.72;;;2.50;;
22780;SDS011;11557;50.884;4.322;2023-10-08T04:07:21;6.85;;;2.83;;
22780;SDS011;11557;50.884;4.322;2023-10-08T04:12:34;5.93;;;2.70;;
22780;SDS011;11557;50.884;4.322;2023-10-08T04:15:01;7.10;;;2.88;;
22780;SDS011;11557;50.884;4.322;2023-10-08T04:17:42;7.60;;;3.58;;
22780;SDS011;11557;50.884;4.322;2023-10-08T04:20:10;7.80;;;2.78;;
22780;SDS011;11557;50.884;4.322;2023-10-08T04:22:56;6.13;;;2.90;;
22780;SDS011;11557;50.884;4.322;2023-10-08T04:25:25;8.55;;;3.03;;
22780;SDS011;11557;50.884;4.322;2023-10-08T04:27:55;8.65;;;3.08;;
22780;SDS011;11557;50.884;4.322;2023-10-08T04:30:27;7.78;;;3.10;;
22780;SDS011;11557;50.884;4.322;2023-10-08T04:33:05;7.47;;;3.03;;
22780;SDS011;11557;50.884;4.322;2023-10-08T04:35:38;6.28;;;2.80;;
22780;SDS011;11557;50.884;4.322;2023-10-08T04:38:22;9.52;;;3.58;;
22780;SDS011;11557;50.884;4.322;2023-10-08T04:40:53;10.18;;;2.95;;
22780;SDS011;11557;50.884;4.322;2023-10-08T04:43:22;5.40;;;2.78;;
22780;SDS011;11557;50.884;4.322;2023-10-08T04:46:01;6.78;;;2.78;;
22780;SDS011;11557;50.884;4.322;2023-10-08T04:48:33;3.55;;;2.38;;
22780;SDS011;11557;50.884;4.322;2023-10-08T04:51:01;6.72;;;2.40;;
22780;SDS011;11557;50.884;4.322;2023-10-08T04:53:32;7.65;;;3.03;;
22780;SDS011;11557;50.884;4.322;2023-10-08T04:56:06;5.30;;;3.10;;
22780;SDS011;11557;50.884;4.322;2023-10-08T04:58:38;7.40;;;2.83;;
22780;SDS011;11557;50.884;4.322;2023-10-08T05:01:08;7.55;;;3.03;;
22780;SDS011;11557;50.884;4.322;2023-10-08T05:03:50;5.38;;;3.40;;
22780;SDS011;11557;50.884;4.322;2023-10-08T05:06:39;9.95;;;3.85;;
22780;SDS011;11557;50.884;4.322;2023-10-08T05:09:17;5.63;;;2.90;;
22780;SDS011;11557;50.884;4.322;2023-10-08T05:11:52;7.20;;;3.28;;
22780;SDS011;11557;50.884;4.322;2023-10-08T05:14:55;7.75;;;3.15;;
22780;SDS011;11557;50.884;4.322;2023-10-08T05:17:35;9.43;;;3.17;;
22780;SDS011;11557;50.884;4.322;2023-10-08T05:20:23;5.43;;;2.78;;
22780;SDS011;11557;50.884;4.322;2023-10-08T05:23:11;6.32;;;2.85;;
22780;SDS011;11557;50.884;4.322;2023-10-08T05:25:50;8.80;;;2.97;;
22780;SDS011;11557;50.884;4.322;2023-10-08T05:28:26;10.18;;;3.17;;
22780;SDS011;11557;50.884;4.322;2023-10-08T05:30:57;6.85;;;2.97;;
22780;SDS011;11557;50.884;4.322;2023-10-08T05:33:44;6.13;;;3.20;;
22780;SDS011;11557;50.884;4.322;2023-10-08T05:36:40;4.78;;;3.00;;
22780;SDS011;11557;50.884;4.322;2023-10-08T05:39:35;8.18;;;2.97;;
22780;SDS011;11557;50.884;4.322;2023-10-08T05:42:04;7.22;;;3.53;;
22780;SDS011;11557;50.884;4.322;2023-10-08T05:44:42;7.95;;;3.30;;
22780;SDS011;11557;50.884;4.322;2023-10-08T05:47:14;8.00;;;3.70;;
22780;SDS011;11557;50.884;4.322;2023-10-08T05:49:58;8.63;;;3.20;;
22780;SDS011;11557;50.884;4.322;2023-10-08T05:52:48;11.82;;;3.72;;
22780;SDS011;11557;50.884;4.322;2023-10-08T05:55:18;6.97;;;3.95;;
22780;SDS011;11557;50.884;4.322;2023-10-08T05:57:52;8.73;;;4.05;;
22780;SDS011;11557;50.884;4.322;2023-10-08T06:00:50;8.68;;;3.33;;
22780;SDS011;11557;50.884;4.322;2023-10-08T06:03:16;4.45;;;3.00;;
22780;SDS011;11557;50.884;4.322;2023-10-08T06:08:58;8.35;;;3.92;;
22780;SDS011;11557;50.884;4.322;2023-10-08T06:11:47;6.15;;;3.53;;
22780;SDS011;11557;50.884;4.322;2023-10-08T06:14:33;9.52;;;3.78;;
22780;SDS011;11557;50.884;4.322;2023-10-08T06:17:18;10.27;;;4.38;;
22780;SDS011;11557;50.884;4.322;2023-10-08T06:20:00;9.05;;;4.30;;
22780;SDS011;11557;50.884;4.322;2023-10-08T06:22:34;12.75;;;4.40;;
22780;SDS011;11557;50.884;4.322;2023-10-08T06:25:00;9.90;;;4.68;;
22780;SDS011;11557;50.884;4.322;2023-10-08T06:27:41;7.13;;;4.20;;
22780;SDS011;11557;50.884;4.322;2023-10-08T06:30:06;10.60;;;4.10;;
22780;SDS011;11557;50.884;4.322;2023-10-08T06:32:42;8.30;;;4.43;;
22780;SDS011;11557;50.884;4.322;2023-10-08T06:35:10;5.60;;;3.67;;
22780;SDS011;11557;50.884;4.322;2023-10-08T06:37:47;11.27;;;4.35;;
22780;SDS011;11557;50.884;4.322;2023-10-08T06:40:17;7.45;;;4.10;;
22780;SDS011;11557;50.884;4.322;2023-10-08T06:43:14;7.45;;;3.75;;
22780;SDS011;11557;50.884;4.322;2023-10-08T06:45:42;8.63;;;4.18;;
22780;SDS011;11557;50.884;4.322;2023-10-08T06:48:10;8.90;;;4.18;;
22780;SDS011;11557;50.884;4.322;2023-10-08T06:50:43;15.00;;;4.37;;
22780;SDS011;11557;50.884;4.322;2023-10-08T06:53:10;8.88;;;3.90;;
22780;SDS011;11557;50.884;4.322;2023-10-08T06:55:39;11.90;;;4.32;;
22780;SDS011;11557;50.884;4.322;2023-10-08T06:58:07;7.85;;;4.13;;
22780;SDS011;11557;50.884;4.322;2023-10-08T07:00:35;13.88;;;3.92;;
22780;SDS011;11557;50.884;4.322;2023-10-08T07:03:29;7.07;;;3.92;;
22780;SDS011;11557;50.884;4.322;2023-10-08T07:05:57;7.57;;;3.40;;
22780;SDS011;11557;50.884;4.322;2023-10-08T07:08:23;11.20;;;5.40;;
22780;SDS011;11557;50.884;4.322;2023-10-08T07:10:51;10.95;;;5.57;;
22780;SDS011;11557;50.884;4.322;2023-10-08T07:13:18;6.88;;;3.28;;
22780;SDS011;11557;50.884;4.322;2023-10-08T07:15:48;6.38;;;3.33;;
22780;SDS011;11557;50.884;4.322;2023-10-08T07:18:14;9.40;;;3.78;;
22780;SDS011;11557;50.884;4.322;2023-10-08T07:20:46;9.02;;;3.55;;
22780;SDS011;11557;50.884;4.322;2023-10-08T07:23:18;7.85;;;3.05;;
22780;SDS011;11557;50.884;4.322;2023-10-08T07:25:48;17.17;;;4.05;;
22780;SDS011;11557;50.884;4.322;2023-10-08T07:28:18;7.53;;;3.70;;
22780;SDS011;11557;50.884;4.322;2023-10-08T07:30:45;8.07;;;3.70;;
22780;SDS011;11557;50.884;4.322;2023-10-08T07:33:11;5.72;;;3.20;;
22780;SDS011;11557;50.884;4.322;2023-10-08T07:35:46;8.73;;;3.42;;
22780;SDS011;11557;50.884;4.322;2023-10-08T07:38:25;9.40;;;3.22;;
22780;SDS011;11557;50.884;4.322;2023-10-08T07:40:55;9.23;;;3.83;;
22780;SDS011;11557;50.884;4.322;2023-10-08T07:43:21;5.97;;;3.10;;
22780;SDS011;11557;50.884;4.322;2023-10-08T07:45:47;5.90;;;3.53;;
22780;SDS011;11557;50.884;4.322;2023-10-08T07:48:13;5.32;;;3.05;;
22780;SDS011;11557;50.884;4.322;2023-10-08T07:50:42;8.43;;;3.08;;
22780;SDS011;11557;50.884;4.322;2023-10-08T07:53:12;6.75;;;3.00;;
22780;SDS011;11557;50.884;4.322;2023-10-08T07:55:43;6.07;;;3.20;;
22780;SDS011;11557;50.884;4.322;2023-10-08T07:58:11;8.02;;;3.33;;
22780;SDS011;11557;50.884;4.322;2023-10-08T08:00:39;9.02;;;3.47;;
22780;SDS011;11557;50.884;4.322;2023-10-08T08:03:06;8.43;;;4.20;;
22780;SDS011;11557;50.884;4.322;2023-10-08T08:05:32;10.63;;;3.35;;
22780;SDS011;11557;50.884;4.322;2023-10-08T08:07:58;9.07;;;4.13;;
22780;SDS011;11557;50.884;4.322;2023-10-08T08:10:33;7.53;;;3.80;;
22780;SDS011;11557;50.884;4.322;2023-10-08T08:13:03;7.55;;;4.18;;
22780;SDS011;11557;50.884;4.322;2023-10-08T08:15:32;9.07;;;3.50;;
22780;SDS011;11557;50.884;4.322;2023-10-08T08:18:06;8.05;;;3.60;;
22780;SDS011;11557;50.884;4.322;2023-10-08T08:20:34;5.25;;;3.17;;
22780;SDS011;11557;50.884;4.322;2023-10-08T08:23:04;5.50;;;3.38;;
22780;SDS011;11557;50.884;4.322;2023-10-08T08:25:40;7.07;;;3.70;;
22780;SDS011;11557;50.884;4.322;2023-10-08T08:28:26;8.82;;;3.83;;
22780;SDS011;11557;50.884;4.322;2023-10-08T08:30:54;14.35;;;3.83;;
22780;SDS011;11557;50.884;4.322;2023-10-08T08:33:20;10.40;;;3.25;;
22780;SDS011;11557;50.884;4.322;2023-10-08T08:36:02;9.48;;;4.00;;
22780;SDS011;11557;50.884;4.322;2023-10-08T08:38:30;8.40;;;4.00;;
22780;SDS011;11557;50.884;4.322;2023-10-08T08:41:06;8.57;;;3.22;;
22780;SDS011;11557;50.884;4.322;2023-10-08T08:43:35;9.90;;;4.05;;
22780;SDS011;11557;50.884;4.322;2023-10-08T08:46:04;11.23;;;3.70;;
22780;SDS011;11557;50.884;4.322;2023-10-08T08:48:32;10.82;;;4.00;;
22780;SDS011;11557;50.884;4.322;2023-10-08T08:51:00;8.88;;;3.33;;
22780;SDS011;11557;50.884;4.322;2023-10-08T08:53:26;7.07;;;3.78;;
22780;SDS011;11557;50.884;4.322;2023-10-08T08:55:52;6.40;;;3.53;;
22780;SDS011;11557;50.884;4.322;2023-10-08T08:58:20;7.78;;;3.33;;
22780;SDS011;11557;50.884;4.322;2023-10-08T09:00:47;5.68;;;2.90;;
22780;SDS011;11557;50.884;4.322;2023-10-08T09:03:17;5.53;;;2.63;;
22780;SDS011;11557;50.884;4.322;2023-10-08T09:05:44;10.68;;;3.42;;
22780;SDS011;11557;50.884;4.322;2023-10-08T09:08:15;7.20;;;2.72;;
22780;SDS011;11557;50.884;4.322;2023-10-08T09:10:43;8.75;;;3.45;;
22780;SDS011;11557;50.884;4.322;2023-10-08T09:13:21;8.00;;;3.42;;
22780;SDS011;11557;50.884;4.322;2023-10-08T09:15:48;9.30;;;3.10;;
22780;SDS011;11557;50.884;4.322;2023-10-08T09:18:14;10.50;;;3.42;;
22780;SDS011;11557;50.884;4.322;2023-10-08T09:20:40;9.90;;;3.80;;
22780;SDS011;11557;50.884;4.322;2023-10-08T09:23:12;9.68;;;3.35;;
22780;SDS011;11557;50.884;4.322;2023-10-08T09:25:46;7.43;;;3.08;;
22780;SDS011;11557;50.884;4.322;2023-10-08T09:28:17;6.63;;;2.85;;
22780;SDS011;11557;50.884;4.322;2023-10-08T09:30:43;7.30;;;2.75;;
22780;SDS011;11557;50.884;4.322;2023-10-08T09:33:13;9.85;;;3.03;;
22780;SDS011;11557;50.884;4.322;2023-10-08T09:35:41;9.65;;;3.65;;
22780;SDS011;11557;50.884;4.322;2023-10-08T09:38:08;9.00;;;3.28;;
22780;SDS011;11557;50.884;4.322;2023-10-08T09:40:38;16.23;;;3.45;;
22780;SDS011;11557;50.884;4.322;2023-10-08T09:43:08;9.75;;;3.33;;
22780;SDS011;11557;50.884;4.322;2023-10-08T09:45:36;9.98;;;3.28;;
22780;SDS011;11557;50.884;4.322;2023-10-08T09:48:03;7.35;;;3.13;;
22780;SDS011;11557;50.884;4.322;2023-10-08T09:50:37;8.05;;;3.72;;
22780;SDS011;11557;50.884;4.322;2023-10-08T09:53:09;7.18;;;3.03;;
22780;SDS011;11557;50.884;4.322;2023-10-08T09:55:53;6.43;;;3.08;;
22780;SDS011;11557;50.884;4.322;2023-10-08T09:58:24;9.75;;;4.15;;
22780;SDS011;11557;50.884;4.322;2023-10-08T10:00:51;5.47;;;2.90;;
22780;SDS011;11557;50.884;4.322;2023-10-08T10:03:19;7.97;;;3.28;;
22780;SDS011;11557;50.884;4.322;2023-10-08T10:05:46;10.73;;;3.28;;
22780;SDS011;11557;50.884;4.322;2023-10-08T10:08:15;9.32;;;3.40;;
22780;SDS011;11557;50.884;4.322;2023-10-08T10:10:40;9.88;;;3.88;;
22780;SDS011;11557;50.884;4.322;2023-10-08T10:13:12;10.13;;;3.88;;
22780;SDS011;11557;50.884;4.322;2023-10-08T10:15:37;12.73;;;3.63;;
22780;SDS011;11557;50.884;4.322;2023-10-08T10:18:26;10.30;;;4.28;;
22780;SDS011;11557;50.884;4.322;2023-10-08T10:23:41;11.05;;;3.67;;
22780;SDS011;11557;50.884;4.322;2023-10-08T10:29:22;9.48;;;3.63;;
22780;SDS011;11557;50.884;4.322;2023-10-08T10:31:47;9.07;;;3.83;;
22780;SDS011;11557;50.884;4.322;2023-10-08T10:34:26;11.73;;;4.47;;
22780;SDS011;11557;50.884;4.322;2023-10-08T10:36:53;11.60;;;4.03;;
22780;SDS011;11557;50.884;4.322;2023-10-08T10:39:21;10.70;;;3.50;;
22780;SDS011;11557;50.884;4.322;2023-10-08T10:42:00;11.63;;;4.03;;
22780;SDS011;11557;50.884;4.322;2023-10-08T10:44:27;9.27;;;3.30;;
22780;SDS011;11557;50.884;4.322;2023-10-08T10:46:54;12.48;;;3.38;;
22780;SDS011;11557;50.884;4.322;2023-10-08T10:49:39;11.23;;;3.85;;
22780;SDS011;11557;50.884;4.322;2023-10-08T10:55:04;8.77;;;3.05;;
22780;SDS011;11557;50.884;4.322;2023-10-08T10:57:39;15.68;;;4.53;;
22780;SDS011;11557;50.884;4.322;2023-10-08T11:00:07;12.38;;;4.22;;
22780;SDS011;11557;50.884;4.322;2023-10-08T11:02:51;13.35;;;5.38;;
22780;SDS011;11557;50.884;4.322;2023-10-08T11:05:21;12.93;;;5.65;;
22780;SDS011;11557;50.884;4.322;2023-10-08T11:07:56;14.73;;;6.65;;
22780;SDS011;11557;50.884;4.322;2023-10-08T11:10:34;7.82;;;4.10;;
22780;SDS011;11557;50.884;4.322;2023-10-08T11:13:07;12.13;;;4.20;;
22780;SDS011;11557;50.884;4.322;2023-10-08T11:15:40;12.38;;;3.97;;
22780;SDS011;11557;50.884;4.322;2023-10-08T11:18:15;10.27;;;3.67;;
22780;SDS011;11557;50.884;4.322;2023-10-08T11:20:42;8.32;;;3.60;;
22780;SDS011;11557;50.884;4.322;2023-10-08T11:23:34;12.30;;;4.32;;
22780;SDS011;11557;50.884;4.322;2023-10-08T11:26:00;11.23;;;4.22;;
22780;SDS011;11557;50.884;4.322;2023-10-08T11:31:00;8.35;;;4.00;;
22780;SDS011;11557;50.884;4.322;2023-10-08T11:33:35;15.77;;;5.40;;
22780;SDS011;11557;50.884;4.322;2023-10-08T11:36:16;10.27;;;4.28;;
22780;SDS011;11557;50.884;4.322;2023-10-08T11:38:45;12.85;;;3.65;;
22780;SDS011;11557;50.884;4.322;2023-10-08T11:41:16;12.00;;;4.13;;
22780;SDS011;11557;50.884;4.322;2023-10-08T11:43:49;20.15;;;5.75;;
22780;SDS011;11557;50.884;4.322;2023-10-08T11:46:23;12.93;;;4.40;;
22780;SDS011;11557;50.884;4.322;2023-10-08T11:48:51;15.60;;;5.15;;
22780;SDS011;11557;50.884;4.322;2023-10-08T11:51:17;13.05;;;4.38;;
22780;SDS011;11557;50.884;4.322;2023-10-08T11:53:43;15.90;;;4.88;;
22780;SDS011;11557;50.884;4.322;2023-10-08T11:56:11;12.65;;;5.45;;
22780;SDS011;11557;50.884;4.322;2023-10-08T11:58:41;40.70;;;22.42;;
22780;SDS011;11557;50.884;4.322;2023-10-08T12:01:12;33.00;;;20.05;;
22780;SDS011;11557;50.884;4.322;2023-10-08T12:03:43;31.93;;;16.30;;
22780;SDS011;11557;50.884;4.322;2023-10-08T12:06:10;24.90;;;13.60;;
22780;SDS011;11557;50.884;4.322;2023-10-08T12:08:40;12.05;;;5.45;;
22780;SDS011;11557;50.884;4.322;2023-10-08T12:11:18;13.10;;;6.60;;
22780;SDS011;11557;50.884;4.322;2023-10-08T12:13:44;13.80;;;5.45;;
22780;SDS011;11557;50.884;4.322;2023-10-08T12:16:13;9.82;;;4.35;;
22780;SDS011;11557;50.884;4.322;2023-10-08T12:18:48;16.30;;;7.43;;
22780;SDS011;11557;50.884;4.322;2023-10-08T12:21:18;12.75;;;5.10;;
22780;SDS011;11557;50.884;4.322;2023-10-08T12:23:45;23.35;;;11.20;;
22780;SDS011;11557;50.884;4.322;2023-10-08T12:26:12;32.65;;;14.40;;
22780;SDS011;11557;50.884;4.322;2023-10-08T12:28:47;16.45;;;4.75;;
22780;SDS011;11557;50.884;4.322;2023-10-08T12:31:20;27.05;;;14.15;;
22780;SDS011;11557;50.884;4.322;2023-10-08T12:33:49;17.02;;;8.23;;
22780;SDS011;11557;50.884;4.322;2023-10-08T12:36:19;12.43;;;6.40;;
22780;SDS011;11557;50.884;4.322;2023-10-08T12:38:48;15.73;;;5.18;;
22780;SDS011;11557;50.884;4.322;2023-10-08T12:41:14;8.32;;;3.55;;
22780;SDS011;11557;50.884;4.322;2023-10-08T12:43:44;7.80;;;3.45;;
22780;SDS011;11557;50.884;4.322;2023-10-08T12:46:13;13.15;;;3.95;;
22780;SDS011;11557;50.884;4.322;2023-10-08T12:48:52;12.80;;;5.15;;
22780;SDS011;11557;50.884;4.322;2023-10-08T12:51:22;18.88;;;9.38;;
22780;SDS011;11557;50.884;4.322;2023-10-08T12:53:50;10.43;;;5.65;;
22780;SDS011;11557;50.884;4.322;2023-10-08T12:56:24;15.35;;;6.90;;
22780;SDS011;11557;50.884;4.322;2023-10-08T12:58:57;10.52;;;5.60;;
22780;SDS011;11557;50.884;4.322;2023-10-08T13:01:23;14.73;;;6.25;;
22780;SDS011;11557;50.884;4.322;2023-10-08T13:03:55;10.38;;;5.15;;
22780;SDS011;11557;50.884;4.322;2023-10-08T13:06:26;9.88;;;3.17;;
22780;SDS011;11557;50.884;4.322;2023-10-08T13:08:56;10.18;;;4.03;;
22780;SDS011;11557;50.884;4.322;2023-10-08T13:11:25;7.90;;;3.55;;
22780;SDS011;11557;50.884;4.322;2023-10-08T13:13:57;12.27;;;3.78;;
22780;SDS011;11557;50.884;4.322;2023-10-08T13:16:25;11.90;;;4.22;;
22780;SDS011;11557;50.884;4.322;2023-10-08T13:18:53;9.05;;;3.55;;
22780;SDS011;11557;50.884;4.322;2023-10-08T13:21:21;8.65;;;3.55;;
22780;SDS011;11557;50.884;4.322;2023-10-08T13:23:50;14.57;;;4.00;;
22780;SDS011;11557;50.884;4.322;2023-10-08T13:26:27;11.57;;;4.47;;
22780;SDS011;11557;50.884;4.322;2023-10-08T13:28:56;12.75;;;4.30;;
22780;SDS011;11557;50.884;4.322;2023-10-08T13:31:23;8.77;;;4.28;;
22780;SDS011;11557;50.884;4.322;2023-10-08T13:33:51;10.27;;;3.90;;
22780;SDS011;11557;50.884;4.322;2023-10-08T13:36:17;10.55;;;3.55;;
22780;SDS011;11557;50.884;4.322;2023-10-08T13:38:43;7.00;;;3.88;;
22780;SDS011;11557;50.884;4.322;2023-10-08T13:41:11;14.02;;;4.47;;
22780;SDS011;11557;50.884;4.322;2023-10-08T13:43:43;10.25;;;3.83;;
22780;SDS011;11557;50.884;4.322;2023-10-08T13:46:11;7.43;;;3.70;;
22780;SDS011;11557;50.884;4.322;2023-10-08T13:51:13;8.65;;;3.10;;
22780;SDS011;11557;50.884;4.322;2023-10-08T13:53:47;7.72;;;3.20;;
22780;SDS011;11557;50.884;4.322;2023-10-08T13:56:19;8.27;;;3.80;;
22780;SDS011;11557;50.884;4.322;2023-10-08T13:58:49;8.50;;;4.03;;
22780;SDS011;11557;50.884;4.322;2023-10-08T14:01:17;8.95;;;3.63;;
22780;SDS011;11557;50.884;4.322;2023-10-08T14:03:49;18.58;;;4.15;;
22780;SDS011;11557;50.884;4.322;2023-10-08T14:06:18;7.00;;;3.47;;
22780;SDS011;11557;50.884;4.322;2023-10-08T14:08:45;15.23;;;5.05;;
22780;SDS011;11557;50.884;4.322;2023-10-08T14:11:19;9.30;;;3.70;;
22780;SDS011;11557;50.884;4.322;2023-10-08T14:13:49;14.65;;;4.32;;
22780;SDS011;11557;50.884;4.322;2023-10-08T14:16:20;8.82;;;4.00;;
22780;SDS011;11557;50.884;4.322;2023-10-08T14:18:54;9.45;;;4.65;;
22780;SDS011;11557;50.884;4.322;2023-10-08T14:21:22;13.10;;;4.03;;
22780;SDS011;11557;50.884;4.322;2023-10-08T14:23:58;12.40;;;3.97;;
22780;SDS011;11557;50.884;4.322;2023-10-08T14:26:41;7.68;;;3.67;;
22780;SDS011;11557;50.884;4.322;2023-10-08T14:29:08;9.77;;;3.35;;
22780;SDS011;11557;50.884;4.322;2023-10-08T14:31:43;13.30;;;3.80;;
22780;SDS011;11557;50.884;4.322;2023-10-08T14:34:15;11.90;;;3.63;;
22780;SDS011;11557;50.884;4.322;2023-10-08T14:36:43;11.13;;;3.63;;
22780;SDS011;11557;50.884;4.322;2023-10-08T14:39:28;6.40;;;3.40;;
22780;SDS011;11557;50.884;4.322;2023-10-08T14:42:13;11.20;;;4.13;;
22780;SDS011;11557;50.884;4.322;2023-10-08T14:44:57;7.40;;;3.33;;
22780;SDS011;11557;50.884;4.322;2023-10-08T14:47:23;12.43;;;3.50;;
22780;SDS011;11557;50.884;4.322;2023-10-08T14:49:48;7.32;;;3.03;;
22780;SDS011;11557;50.884;4.322;2023-10-08T14:52:14;12.13;;;3.63;;
22780;SDS011;11557;50.884;4.322;2023-10-08T14:54:41;8.05;;;3.30;;
22780;SDS011;11557;50.884;4.322;2023-10-08T14:57:10;12.02;;;2.92;;
22780;SDS011;11557;50.884;4.322;2023-10-08T14:59:40;9.40;;;3.22;;
22780;SDS011;11557;50.884;4.322;2023-10-08T15:02:07;8.18;;;2.88;;
22780;SDS011;11557;50.884;4.322;2023-10-08T15:04:34;11.57;;;3.40;;
22780;SDS011;11557;50.884;4.322;2023-10-08T15:07:04;8.30;;;3.30;;
22780;SDS011;11557;50.884;4.322;2023-10-08T15:09:36;12.93;;;3.25;;
22780;SDS011;11557;50.884;4.322;2023-10-08T15:12:02;10.27;;;3.72;;
22780;SDS011;11557;50.884;4.322;2023-10-08T15:14:28;10.27;;;4.13;;
22780;SDS011;11557;50.884;4.322;2023-10-08T15:16:54;7.28;;;3.25;;
22780;SDS011;11557;50.884;4.322;2023-10-08T15:19:22;8.43;;;3.90;;
22780;SDS011;11557;50.884;4.322;2023-10-08T15:21:48;6.05;;;3.22;;
22780;SDS011;11557;50.884;4.322;2023-10-08T15:24:18;12.77;;;3.55;;
22780;SDS011;11557;50.884;4.322;2023-10-08T15:26:54;12.77;;;3.75;;
22780;SDS011;11557;50.884;4.322;2023-10-08T15:29:20;8.02;;;4.00;;
22780;SDS011;11557;50.884;4.322;2023-10-08T15:31:48;7.22;;;3.83;;
22780;SDS011;11557;50.884;4.322;2023-10-08T15:34:16;8.90;;;3.38;;
22780;SDS011;11557;50.884;4.322;2023-10-08T15:36:41;9.23;;;3.75;;